MMDO/DGO METAR and TAF weather

Enter ICAO airport designator
Station Type Date Time Source
MMDO METAR 2021/10/22 17:43 UTC NOAA

MMDO 221743Z 04002KT 14SM SCT025 22/09 A3031 RMK SLP118 57013 956 8/100 FRMG TCU


Station Type Date Time Source
MMDO Decoded METAR 2021/10/22 17:43 UTC NOAA

Durango Airport, Mexico (MMDO) 24-08N 104-32W
Oct 22, 2021 - 01:43 PM EDT / 2021.10.22 1743 UTC
Wind: from the NE (040 degrees) at 2 MPH (2 KT):0
Visibility: 14 mile(s):0
Sky conditions: partly cloudy
Weather: Towering cumulus clouds observed
Temperature: 71 F (22 C)
Dew Point: 48 F (9 C)
Relative Humidity: 43%
Pressure (altimeter): 30.31 in. Hg (1026 hPa)
Pressure tendency: 0.04 inches (1.3 hPa) lower than three hours ago
ob: MMDO 221743Z 04002KT 14SM SCT025 22/09 A3031 RMK SLP118 57013 956 8/100 FRMG TCU
cycle: 17

Station Type Date Time Source
MMDO TAF 2021/10/22 18:53 UTC NOAA

TAF MMDO 221648Z 2218/2318 34010KT P6SM SCT020 SCT070
FM230000 00000KT P6SM OVC020
FM231400 00000KT P6SM SCT020

Example: see airport list